This is the latest recevied weather packets stored in our database for station/object DL6ABE-13. If no packets are shown the sender has not sent any weather packets the latest 10 day(s).
| Time | Temp. | Humidity | Pressure | Rain* | Wind** | Luminosity | Snow |
|---|---|---|---|---|---|---|---|
| 1777737334 | 27.22° C | 43% | 1012.4 hPa | - | - | - | - |
| 1777736155 | 27.22° C | 43% | 1012.5 hPa | - | - | - | - |
| 1777730114 | 26.11° C | 44% | 1014.2 hPa | - | - | - | - |
| 1777728306 | 25.56° C | 45% | 1014.6 hPa | - | - | - | - |
| 1777726501 | 25° C | 45% | 1015 hPa | - | - | - | - |
| 1777722285 | 23.89° C | 48% | 1016.1 hPa | - | - | - | - |
| 1777717470 | 21.67° C | 51% | 1017.1 hPa | - | - | - | - |
| 1777706634 | 14.44° C | 66% | 1018.2 hPa | - | - | - | - |
| 1777705431 | 13.89° C | 70% | 1018.4 hPa | - | - | - | - |
| 1777702420 | 10° C | 80% | 1018.4 hPa | - | - | - | - |
| 1777700613 | 8.33° C | 81% | 1018.3 hPa | - | - | - | - |
| 1777699411 | 7.78° C | 82% | 1018.2 hPa | - | - | - | - |
| 1777695197 | 7.78° C | 80% | 1018.3 hPa | - | - | - | - |
| 1777691003 | 8.33° C | 77% | 1018 hPa | - | - | - | - |
| 1777687391 | 9.44° C | 72% | 1018.3 hPa | - | - | - | - |
| 1777684962 | 10.56° C | 69% | 1018.4 hPa | - | - | - | - |
| 1777680746 | 13.33° C | 59% | 1018.4 hPa | - | - | - | - |
| 1777680145 | 13.33° C | 58% | 1018.5 hPa | - | - | - | - |
| 1777679544 | 13.89° C | 56% | 1018.4 hPa | - | - | - | - |
| 1777678340 | 14.44° C | 53% | 1018.3 hPa | - | - | - | - |
| 1777677758 | 14.44° C | 52% | 1018.5 hPa | - | - | - | - |
| 1777677134 | 15° C | 52% | 1018.4 hPa | - | - | - | - |
| 1777670514 | 14.44° C | 59% | 1018.4 hPa | - | - | - | - |
| 1777669913 | 14.44° C | 60% | 1018.3 hPa | - | - | - | - |
| 1777667502 | 16.11° C | 53% | 1018.3 hPa | - | - | - | - |
* Rain since midnight (hover to see other rain measurements)
** Current wind speed in m/s (hover to see current wind gust speed)